Boraq — CNA4470 — position and weather

sailwx.info

Track history (hours):
 
Tides and Currents Weather Stations Pressure Air Temp Water Temp Dewpoint Dewpoint Depression Visibility Wind Speed Wind Dir Waves Ship Positions

Boraq

Last reported at 2017-Sep-16 15:40 UTC. Time now 2017-Sep-24 08:54 UTC.
Position N 36°00' W 005°36'.

Length 74 m; draft 2.6 m.

Type: Ship. MMSI: 242048000.

Date/timePositionNaut miles runAvg speedWind from/ knotsBaromVisibWave heightAir tempDewpointWater temp
2017-Sep-16 15:40N 36°00' W 005°36'0 0.0
2017-Sep-15 19:20N 36°01' W 005°36'0 0.0
2017-Sep-13 19:15N 36°00' W 005°36'0 0.0
2017-Sep-12 19:31N 36°01' W 005°36'3 1.2
2017-Sep-12 16:43N 35°59' W 005°40'3 3.4
2017-Sep-12 15:42N 36°01' W 005°36'313.5
2017-Sep-12 15:30N 35°58' W 005°38'2 0.3
2017-Sep-12 07:36N 36°00' W 005°36'7 0.6
2017-Sep-11 20:30N 35°57' W 005°44'711.9
2017-Sep-11 19:54N 36°01' W 005°36'0 0.8
2017-Sep-11 19:30N 36°00' W 005°36'0 0.1
2017-Sep-11 16:17N 36°00' W 005°36'0 1.4
2017-Sep-11 15:57N 36°01' W 005°36'2 4.9
2017-Sep-11 15:27N 35°58' W 005°38'1 0.4
2017-Sep-11 12:12N 35°59' W 005°37'1 2.3
2017-Sep-11 11:36N 36°01' W 005°36'1 6.5
2017-Sep-11 11:30N 35°60' W 005°36'6 0.4
2017-Sep-10 20:29N 35°57' W 005°43'7 7.2
2017-Sep-10 19:34N 36°01' W 005°36'0 2.6
2017-Sep-10 19:30N 36°00' W 005°36'3 0.1
2017-Sep-09 16:37N 35°58' W 005°39'221.3
2017-Sep-09 16:30N 35°60' W 005°37'3 0.6
2017-Sep-09 12:30N 35°59' W 005°40'4 6.7
2017-Sep-09 11:59N 36°01' W 005°36'4 0.2
2017-Sep-08 20:24N 35°59' W 005°40'4 9.1
2017-Sep-08 20:00N 36°01' W 005°36'5 9.6
2017-Sep-08 19:29N 35°56' W 005°40'5 0.4
2017-Sep-08 07:26N 36°00' W 005°36'16 2.3
2017-Sep-08 00:18N 35°47' W 005°48'0 0.0
2017-Sep-07 23:59N 35°47' W 005°48'0 0.0
2017-Sep-07 23:30N 35°47' W 005°48'0 0.0
2017-Sep-07 23:00N 35°47' W 005°48'6 2.6
2017-Sep-07 20:37N 35°53' W 005°46'422.2
2017-Sep-07 20:26N 35°57' W 005°44'7 9.4
2017-Sep-07 19:40N 36°01' W 005°36'0 0.1
2017-Sep-07 19:30N 36°01' W 005°36'919.2
2017-Sep-07 19:01N 35°54' W 005°44'6 2.4
2017-Sep-07 16:29N 35°58' W 005°39'3 3.5
2017-Sep-07 15:30N 36°01' W 005°36'1019.7
2017-Sep-07 15:00N 35°53' W 005°44'6 2.5
2017-Sep-07 12:26N 35°59' W 005°40'3 4.2
2017-Sep-07 11:37N 36°01' W 005°36'212.6
2017-Sep-07 11:29N 35°59' W 005°37'2 0.8
2017-Sep-07 08:18N 35°59' W 005°40'3 4.2
2017-Sep-07 07:33N 36°00' W 005°36'115.4
2017-Sep-07 07:31N 35°60' W 005°36'3 0.3
2017-Sep-06 20:16N 35°59' W 005°40'312.7
2017-Sep-06 19:59N 36°01' W 005°36'0 0.8
2017-Sep-06 19:30N 36°00' W 005°36'916.5
2017-Sep-06 18:58N 35°54' W 005°44'  
Track history (hours):
 
Tides and Currents Weather Stations Pressure Air Temp Water Temp Dewpoint Dewpoint Depression Visibility Wind Speed Wind Dir Waves Ship Positions

Boraq

Last reported at 2017-Sep-16 15:40 UTC. Time now 2017-Sep-24 08:54 UTC.
Position N 36°00' W 005°36'.

Length 74 m; draft 2.6 m.

Type: Ship. MMSI: 242048000.

Date/timePositionNaut miles runAvg speedWind from/ knotsBaromVisibWave heightAir tempDewpointWater temp
2017-Sep-16 15:40N 36°00' W 005°36'0 0.0
2017-Sep-15 19:20N 36°01' W 005°36'0 0.0
2017-Sep-13 19:15N 36°00' W 005°36'0 0.0
2017-Sep-12 19:31N 36°01' W 005°36'3 1.2
2017-Sep-12 16:43N 35°59' W 005°40'3 3.4
2017-Sep-12 15:42N 36°01' W 005°36'313.5
2017-Sep-12 15:30N 35°58' W 005°38'2 0.3
2017-Sep-12 07:36N 36°00' W 005°36'7 0.6
2017-Sep-11 20:30N 35°57' W 005°44'711.9
2017-Sep-11 19:54N 36°01' W 005°36'0 0.8
2017-Sep-11 19:30N 36°00' W 005°36'0 0.1
2017-Sep-11 16:17N 36°00' W 005°36'0 1.4
2017-Sep-11 15:57N 36°01' W 005°36'2 4.9
2017-Sep-11 15:27N 35°58' W 005°38'1 0.4
2017-Sep-11 12:12N 35°59' W 005°37'1 2.3
2017-Sep-11 11:36N 36°01' W 005°36'1 6.5
2017-Sep-11 11:30N 35°60' W 005°36'6 0.4
2017-Sep-10 20:29N 35°57' W 005°43'7 7.2
2017-Sep-10 19:34N 36°01' W 005°36'0 2.6
2017-Sep-10 19:30N 36°00' W 005°36'3 0.1
2017-Sep-09 16:37N 35°58' W 005°39'221.3
2017-Sep-09 16:30N 35°60' W 005°37'3 0.6
2017-Sep-09 12:30N 35°59' W 005°40'4 6.7
2017-Sep-09 11:59N 36°01' W 005°36'4 0.2
2017-Sep-08 20:24N 35°59' W 005°40'4 9.1
2017-Sep-08 20:00N 36°01' W 005°36'5 9.6
2017-Sep-08 19:29N 35°56' W 005°40'5 0.4
2017-Sep-08 07:26N 36°00' W 005°36'16 2.3
2017-Sep-08 00:18N 35°47' W 005°48'0 0.0
2017-Sep-07 23:59N 35°47' W 005°48'0 0.0
2017-Sep-07 23:30N 35°47' W 005°48'0 0.0
2017-Sep-07 23:00N 35°47' W 005°48'6 2.6
2017-Sep-07 20:37N 35°53' W 005°46'422.2
2017-Sep-07 20:26N 35°57' W 005°44'7 9.4
2017-Sep-07 19:40N 36°01' W 005°36'0 0.1
2017-Sep-07 19:30N 36°01' W 005°36'919.2
2017-Sep-07 19:01N 35°54' W 005°44'6 2.4
2017-Sep-07 16:29N 35°58' W 005°39'3 3.5
2017-Sep-07 15:30N 36°01' W 005°36'1019.7
2017-Sep-07 15:00N 35°53' W 005°44'6 2.5
2017-Sep-07 12:26N 35°59' W 005°40'3 4.2
2017-Sep-07 11:37N 36°01' W 005°36'212.6
2017-Sep-07 11:29N 35°59' W 005°37'2 0.8
2017-Sep-07 08:18N 35°59' W 005°40'3 4.2
2017-Sep-07 07:33N 36°00' W 005°36'115.4
2017-Sep-07 07:31N 35°60' W 005°36'3 0.3
2017-Sep-06 20:16N 35°59' W 005°40'312.7
2017-Sep-06 19:59N 36°01' W 005°36'0 0.8
2017-Sep-06 19:30N 36°00' W 005°36'916.5
2017-Sep-06 18:58N 35°54' W 005°44'  

Dump ship's entire track history